createdAt,value
2019-04-11T00:00:59.751Z,88.30
2019-04-11T00:03:49.373Z,88.60
2019-04-11T00:06:39.301Z,89.00
2019-04-11T00:09:28.119Z,89.20
2019-04-11T00:12:17.089Z,89.50
2019-04-11T00:15:06.404Z,90.10
2019-04-11T00:17:54.969Z,90.40
2019-04-11T00:20:44.382Z,90.50
2019-04-11T00:23:34.356Z,90.80
2019-04-11T00:26:22.962Z,91.00
2019-04-11T00:29:12.493Z,91.10
2019-04-11T00:32:04.906Z,91.30
2019-04-11T00:34:53.318Z,91.50
2019-04-11T00:37:43.361Z,91.70
2019-04-11T00:40:33.292Z,91.80
2019-04-11T00:43:31.564Z,92.10
2019-04-11T00:46:13.367Z,92.30
2019-04-11T00:49:02.247Z,92.40
2019-04-11T00:51:51.943Z,92.80
2019-04-11T00:54:40.741Z,92.60
2019-04-11T00:57:30.708Z,93.10
2019-04-11T01:00:20.977Z,93.50
2019-04-11T01:03:09.791Z,93.70
2019-04-11T01:05:58.316Z,93.70
2019-04-11T01:08:48.120Z,93.90
2019-04-11T01:11:37.894Z,94.10
2019-04-11T01:14:09.759Z,94.40
2019-04-11T01:16:59.045Z,94.50
2019-04-11T01:19:48.953Z,94.80
2019-04-11T01:22:38.350Z,95.10
2019-04-11T01:25:28.407Z,95.20
2019-04-11T01:28:18.552Z,95.70
2019-04-11T01:31:09.902Z,96.00
2019-04-11T01:34:00.122Z,96.30
2019-04-11T01:36:49.520Z,96.70
2019-04-11T01:40:04.152Z,97.10
2019-04-11T01:42:52.650Z,97.30
2019-04-11T01:45:41.697Z,97.50
2019-04-11T01:48:40.432Z,97.90
2019-04-11T01:51:29.658Z,98.20
2019-04-11T01:54:19.557Z,98.70
2019-04-11T01:57:09.724Z,98.90
2019-04-11T01:59:59.604Z,99.30
2019-04-11T02:02:54.914Z,99.60
2019-04-11T02:05:43.829Z,99.90
2019-04-11T02:08:33.446Z,99.90
2019-04-11T02:11:22.155Z,99.90
2019-04-11T02:14:16.114Z,99.90
2019-04-11T02:17:01.400Z,99.90
2019-04-11T02:19:50.308Z,99.90
2019-04-11T02:22:47.081Z,99.90
2019-04-11T02:26:04.827Z,99.90
2019-04-11T02:28:55.209Z,99.90
2019-04-11T02:31:44.618Z,99.90
2019-04-11T02:34:35.241Z,99.90
2019-04-11T02:37:26.321Z,99.90
2019-04-11T02:40:17.511Z,99.90
2019-04-11T02:43:07.767Z,99.90
2019-04-11T02:46:08.849Z,99.90
2019-04-11T02:48:46.906Z,99.90
2019-04-11T02:51:36.978Z,99.90
2019-04-11T02:54:28.394Z,99.90
2019-04-11T02:57:18.328Z,99.90
2019-04-11T03:00:08.631Z,99.90
2019-04-11T03:02:59.444Z,99.90
2019-04-11T03:05:48.530Z,99.90
2019-04-11T03:08:38.896Z,99.90
2019-04-11T03:11:28.129Z,99.90
2019-04-11T03:14:20.255Z,99.90
2019-04-11T03:17:14.775Z,99.90
2019-04-11T03:20:10.458Z,99.90
2019-04-11T03:22:57.000Z,99.90
2019-04-11T03:25:40.618Z,99.90
2019-04-11T03:28:31.425Z,99.90
2019-04-11T03:32:04.704Z,99.90
2019-04-11T03:40:11.848Z,99.90
2019-04-11T03:43:00.302Z,99.90
2019-04-11T03:45:52.522Z,99.90
2019-04-11T03:48:38.203Z,99.90
2019-04-11T03:51:14.876Z,99.90
2019-04-11T03:54:05.011Z,99.90
2019-04-11T03:56:54.702Z,99.90
2019-04-11T03:59:45.547Z,99.90
2019-04-11T04:02:37.041Z,99.90
2019-04-11T04:05:26.810Z,99.90
2019-04-11T04:08:17.919Z,99.90
2019-04-11T04:11:27.830Z,99.90
2019-04-11T04:14:28.490Z,99.90
2019-04-11T04:17:27.789Z,99.90
2019-04-11T04:20:41.862Z,99.90
2019-04-11T04:23:33.714Z,99.90
2019-04-11T04:26:25.007Z,99.90
2019-04-11T04:29:15.472Z,99.90
2019-04-11T04:32:05.444Z,99.90
2019-04-11T04:34:56.206Z,99.90
2019-04-11T04:37:47.363Z,99.90
2019-04-11T04:40:54.113Z,99.90
2019-04-11T04:43:29.360Z,99.90
2019-04-11T04:46:37.574Z,99.90
2019-04-11T04:49:09.201Z,99.90
2019-04-11T04:51:59.454Z,99.90
2019-04-11T04:54:49.498Z,99.90
2019-04-11T04:57:40.536Z,99.90
2019-04-11T05:00:31.619Z,99.90
2019-04-11T05:03:20.054Z,99.90
2019-04-11T05:06:10.136Z,99.90
2019-04-11T05:09:00.236Z,99.90
2019-04-11T05:11:50.756Z,99.90
2019-04-11T05:14:39.792Z,99.90
2019-04-11T05:17:29.103Z,99.90
2019-04-11T05:20:19.765Z,99.90
2019-04-11T05:22:51.234Z,99.90
2019-04-11T05:25:40.657Z,99.90
2019-04-11T05:28:29.853Z,99.90
2019-04-11T05:31:19.183Z,99.90
2019-04-11T05:33:49.802Z,99.90
2019-04-11T05:36:38.783Z,99.90
2019-04-11T05:39:27.698Z,99.90
2019-04-11T05:42:19.421Z,99.90
2019-04-11T05:45:11.978Z,99.90
2019-04-11T05:47:58.313Z,99.90
2019-04-11T05:50:50.908Z,99.90
2019-04-11T05:53:38.782Z,99.90
2019-04-11T05:56:30.195Z,99.90
2019-04-11T05:59:23.937Z,99.90
2019-04-11T06:02:21.433Z,99.90
2019-04-11T06:05:15.368Z,99.90
2019-04-11T06:08:06.945Z,99.90
2019-04-11T06:11:33.019Z,99.90
2019-04-11T06:14:35.406Z,99.90
2019-04-11T06:17:25.916Z,99.90
2019-04-11T06:20:33.434Z,99.90
2019-04-11T06:23:37.150Z,99.90
2019-04-11T06:26:49.154Z,99.90
2019-04-11T06:29:50.725Z,99.90
2019-04-11T06:33:08.117Z,99.90
2019-04-11T06:36:23.263Z,99.90
2019-04-11T06:39:38.109Z,99.90
2019-04-11T06:42:49.680Z,99.90
2019-04-11T06:45:52.369Z,99.90
2019-04-11T06:48:49.640Z,99.90
2019-04-11T06:51:44.782Z,99.90
2019-04-11T06:54:52.424Z,99.90
2019-04-11T06:57:42.401Z,99.90
2019-04-11T07:00:33.582Z,99.90
2019-04-11T07:03:29.246Z,99.90
2019-04-11T07:06:23.905Z,99.90
2019-04-11T07:09:39.428Z,99.90
2019-04-11T07:12:41.340Z,99.90
2019-04-11T07:15:37.599Z,99.90
2019-04-11T07:18:35.574Z,99.90
2019-04-11T07:21:29.114Z,99.90
2019-04-11T07:24:53.047Z,99.90
2019-04-11T07:27:59.322Z,99.90
2019-04-11T07:31:06.864Z,99.90
2019-04-11T07:34:31.306Z,99.90
2019-04-11T07:37:49.347Z,99.90
2019-04-11T07:41:06.563Z,99.90
2019-04-11T07:43:56.506Z,99.90
2019-04-11T07:46:55.940Z,99.90
2019-04-11T07:49:45.599Z,99.90
2019-04-11T07:52:41.136Z,99.90
2019-04-11T07:55:30.026Z,99.90
2019-04-11T07:58:42.080Z,99.90
2019-04-11T08:01:52.961Z,99.90
2019-04-11T08:04:58.908Z,99.90
2019-04-11T08:07:57.420Z,99.90
2019-04-11T08:10:55.051Z,99.90
2019-04-11T08:14:02.326Z,99.90
2019-04-11T08:17:05.741Z,99.90
2019-04-11T08:20:13.232Z,99.90
2019-04-11T08:23:05.641Z,99.90
2019-04-11T08:26:24.100Z,99.90
2019-04-11T08:29:15.638Z,99.90
2019-04-11T08:32:22.032Z,99.90
2019-04-11T08:35:30.172Z,99.90
2019-04-11T08:38:22.502Z,99.90
2019-04-11T08:41:37.874Z,99.90
2019-04-11T08:44:32.174Z,99.90
2019-04-11T08:47:22.420Z,99.90
2019-04-11T08:50:14.338Z,99.90
2019-04-11T08:53:26.772Z,99.80
2019-04-11T08:56:15.625Z,99.90
2019-04-11T08:59:31.981Z,99.90
2019-04-11T09:02:31.362Z,99.70
2019-04-11T09:05:38.755Z,99.90
2019-04-11T09:08:46.944Z,99.60
2019-04-11T09:11:44.795Z,99.90
2019-04-11T09:14:52.873Z,97.60
2019-04-11T09:17:56.696Z,95.20
2019-04-11T09:21:00.129Z,95.60
2019-04-11T09:23:50.115Z,96.20
2019-04-11T09:26:56.887Z,93.50
2019-04-11T09:29:50.381Z,92.00
2019-04-11T09:33:14.992Z,92.00
2019-04-11T09:36:23.889Z,90.70
2019-04-11T09:39:32.625Z,87.10
2019-04-11T09:42:53.451Z,83.80
2019-04-11T09:46:04.304Z,81.60
2019-04-11T09:49:12.341Z,80.60
2019-04-11T09:52:16.294Z,80.60
2019-04-11T09:55:26.287Z,82.20
2019-04-11T09:58:25.436Z,79.50
2019-04-11T10:01:33.010Z,78.60
2019-04-11T10:04:23.377Z,77.70
2019-04-11T10:07:28.232Z,76.30
2019-04-11T10:10:46.537Z,78.30
2019-04-11T10:13:55.387Z,79.20
2019-04-11T10:17:22.305Z,77.70
2019-04-11T10:20:12.680Z,77.50
2019-04-11T10:23:27.006Z,76.40
2019-04-11T10:26:16.045Z,75.70
2019-04-11T10:29:29.908Z,77.10
2019-04-11T10:32:19.158Z,78.50
2019-04-11T10:35:40.739Z,76.70
2019-04-11T10:38:30.722Z,74.90
2019-04-11T10:41:37.880Z,75.10
2019-04-11T10:44:42.326Z,75.60
2019-04-11T10:47:33.249Z,75.90
2019-04-11T10:50:56.697Z,74.70
2019-04-11T10:53:45.269Z,73.40
2019-04-11T10:56:44.372Z,75.90
2019-04-11T10:59:35.461Z,75.40
2019-04-11T11:02:43.455Z,75.80
2019-04-11T11:05:33.009Z,72.30
2019-04-11T11:08:39.897Z,70.50
2019-04-11T11:11:34.545Z,71.10
2019-04-11T11:14:42.824Z,70.30
2019-04-11T11:18:27.179Z,71.80
2019-04-11T11:20:59.244Z,68.40
2019-04-11T11:24:07.210Z,64.80
2019-04-11T11:26:57.166Z,68.10
2019-04-11T11:30:10.886Z,68.70
2019-04-11T11:33:02.235Z,69.90
2019-04-11T11:36:13.622Z,67.00
2019-04-11T11:39:19.321Z,62.10
2019-04-11T11:42:39.733Z,66.10
2019-04-11T11:45:49.970Z,63.50
2019-04-11T11:48:59.264Z,66.90
2019-04-11T11:52:09.136Z,66.50
2019-04-11T11:55:00.110Z,64.10
2019-04-11T11:57:57.284Z,63.60
2019-04-11T12:00:49.766Z,65.20
2019-04-11T12:04:00.124Z,65.20
2019-04-11T12:06:49.178Z,61.60
2019-04-11T12:10:11.822Z,61.00
2019-04-11T12:13:28.989Z,61.10
2019-04-11T12:16:48.309Z,59.60
2019-04-11T12:19:53.316Z,61.50
2019-04-11T12:22:40.771Z,61.00
2019-04-11T12:25:34.118Z,63.70
2019-04-11T12:28:52.265Z,61.50
2019-04-11T12:31:44.054Z,62.50
2019-04-11T12:34:51.433Z,62.90
2019-04-11T12:37:50.101Z,60.40
2019-04-11T12:40:53.301Z,62.30
2019-04-11T12:44:00.483Z,61.00
2019-04-11T12:47:07.893Z,61.80
2019-04-11T12:50:28.467Z,60.40
2019-04-11T12:53:06.464Z,59.50
2019-04-11T12:56:27.909Z,58.90
2019-04-11T12:59:21.155Z,59.50
2019-04-11T13:02:27.807Z,60.00
2019-04-11T13:08:27.737Z,59.10
2019-04-11T13:11:17.180Z,59.80
2019-04-11T13:14:27.956Z,60.30
2019-04-11T13:17:20.771Z,59.20
2019-04-11T13:20:32.071Z,59.60
2019-04-11T13:23:40.683Z,58.50
2019-04-11T13:27:07.227Z,58.60
2019-04-11T13:30:31.191Z,59.60
2019-04-11T13:33:25.313Z,59.60
2019-04-11T13:36:31.450Z,60.40
2019-04-11T13:39:21.008Z,58.40
2019-04-11T13:42:38.343Z,58.60
2019-04-11T13:45:27.509Z,59.70
2019-04-11T13:48:34.120Z,58.50
2019-04-11T13:51:33.880Z,58.50
2019-04-11T13:54:39.801Z,59.20
2019-04-11T13:57:57.397Z,57.90
2019-04-11T14:00:50.638Z,56.90
2019-04-11T14:03:58.533Z,57.80
2019-04-11T14:06:48.953Z,59.10
2019-04-11T14:09:43.608Z,59.00
2019-04-11T14:12:33.332Z,57.50
2019-04-11T14:15:23.505Z,57.60
2019-04-11T14:18:28.562Z,59.60
2019-04-11T14:21:19.520Z,58.20
2019-04-11T14:24:41.573Z,57.80
2019-04-11T14:27:30.603Z,58.10
2019-04-11T14:30:38.756Z,57.40
2019-04-11T14:33:28.271Z,56.80
2019-04-11T14:36:35.990Z,56.70
2019-04-11T14:39:27.030Z,58.40
2019-04-11T14:42:25.254Z,57.70
2019-04-11T14:45:27.338Z,57.50
2019-04-11T14:48:37.839Z,58.30
2019-04-11T14:51:54.798Z,58.30
2019-04-11T14:54:49.262Z,58.60
2019-04-11T14:58:04.103Z,57.70
2019-04-11T15:00:54.482Z,56.60
2019-04-11T15:04:13.598Z,56.90
2019-04-11T15:07:04.521Z,55.90
2019-04-11T15:09:59.139Z,57.00
2019-04-11T15:12:48.784Z,56.10
2019-04-11T15:15:57.428Z,56.60
2019-04-11T15:18:53.126Z,57.30
2019-04-11T15:21:59.374Z,55.90
2019-04-11T15:24:49.713Z,56.10
2019-04-11T15:28:13.219Z,56.10
2019-04-11T15:31:08.652Z,56.20
2019-04-11T15:34:24.446Z,57.40
2019-04-11T15:37:32.503Z,56.90
2019-04-11T15:40:31.060Z,56.70
2019-04-11T15:43:42.042Z,56.90
2019-04-11T15:46:32.009Z,56.70
2019-04-11T15:49:48.282Z,55.50
2019-04-11T15:52:39.845Z,55.00
2019-04-11T15:55:47.806Z,55.60
2019-04-11T15:58:42.573Z,55.80
2019-04-11T16:01:54.023Z,55.20
2019-04-11T16:05:02.966Z,55.10
2019-04-11T16:07:52.359Z,55.50
2019-04-11T16:10:47.814Z,55.70
2019-04-11T16:13:55.595Z,56.00
2019-04-11T16:17:05.330Z,56.20
2019-04-11T16:20:00.764Z,57.30
2019-04-11T16:23:15.162Z,57.20
2019-04-11T16:26:07.420Z,56.90
2019-04-11T16:29:18.685Z,56.60
2019-04-11T16:32:12.005Z,56.60
2019-04-11T16:35:29.402Z,56.80
2019-04-11T16:38:01.085Z,55.60
2019-04-11T16:41:14.897Z,56.10
2019-04-11T16:44:06.909Z,56.20
2019-04-11T16:47:14.077Z,55.60
2019-04-11T16:50:04.006Z,55.80
2019-04-11T16:52:53.353Z,55.30
2019-04-11T16:55:43.599Z,55.60
2019-04-11T16:58:33.090Z,56.00
2019-04-11T17:01:23.215Z,55.60
2019-04-11T17:03:59.202Z,55.30
2019-04-11T17:07:06.440Z,55.10
2019-04-11T17:09:57.491Z,55.40
2019-04-11T17:12:46.553Z,55.80
2019-04-11T17:15:35.718Z,56.70
2019-04-11T17:18:25.626Z,56.20
2019-04-11T17:21:14.694Z,56.20
2019-04-11T17:24:04.158Z,56.30
2019-04-11T17:26:53.606Z,56.70
2019-04-11T17:29:43.231Z,56.80
2019-04-11T17:32:31.983Z,56.60
2019-04-11T17:35:21.480Z,56.90
2019-04-11T17:38:11.261Z,56.90
2019-04-11T17:41:02.738Z,57.10
2019-04-11T17:43:52.458Z,56.80
2019-04-11T17:46:41.164Z,57.20
2019-04-11T17:49:30.213Z,57.60
2019-04-11T17:52:19.234Z,58.20
2019-04-11T17:55:08.722Z,57.80
2019-04-11T17:57:57.856Z,57.30
2019-04-11T18:00:52.483Z,57.30
2019-04-11T18:03:42.115Z,57.50
2019-04-11T18:06:32.064Z,57.50
2019-04-11T18:09:25.497Z,58.90
2019-04-11T18:12:11.483Z,58.90
2019-04-11T18:15:02.328Z,59.30
2019-04-11T18:17:51.153Z,59.60
2019-04-11T18:20:41.086Z,59.60
2019-04-11T18:23:30.274Z,59.80
2019-04-11T18:26:21.520Z,60.10
2019-04-11T18:29:10.063Z,60.30
2019-04-11T18:31:59.784Z,60.90
2019-04-11T18:34:48.821Z,61.60
2019-04-11T18:37:38.214Z,62.00
2019-04-11T18:40:10.466Z,62.20
2019-04-11T18:42:59.572Z,62.00
2019-04-11T18:45:48.799Z,61.70
2019-04-11T18:48:37.926Z,61.10
2019-04-11T18:51:26.659Z,61.30
2019-04-11T18:54:16.338Z,62.00
2019-04-11T18:57:05.901Z,62.40
2019-04-11T18:59:55.691Z,62.70
2019-04-11T19:02:44.971Z,62.20
2019-04-11T19:05:34.469Z,62.70
2019-04-11T19:08:24.154Z,62.80
2019-04-11T19:11:15.726Z,62.90
2019-04-11T19:14:04.218Z,62.50
2019-04-11T19:16:53.933Z,62.80
2019-04-11T19:19:43.005Z,62.80
2019-04-11T19:22:37.562Z,63.20
2019-04-11T19:25:23.339Z,63.40
2019-04-11T19:28:12.845Z,63.00
2019-04-11T19:31:02.344Z,63.20
2019-04-11T19:33:51.198Z,63.50
2019-04-11T19:36:42.473Z,63.30
2019-04-11T19:39:30.409Z,63.60
2019-04-11T19:42:19.930Z,63.70
2019-04-11T19:45:09.642Z,64.00
2019-04-11T19:47:59.012Z,64.10
2019-04-11T19:50:48.042Z,64.00
2019-04-11T19:53:37.680Z,64.00
2019-04-11T19:56:46.595Z,63.80
2019-04-11T19:59:36.155Z,64.30
2019-04-11T20:02:25.587Z,64.50
2019-04-11T20:05:14.878Z,64.40
2019-04-11T20:08:04.239Z,64.30
2019-04-11T20:10:53.469Z,64.40
2019-04-11T20:13:43.115Z,64.70
2019-04-11T20:16:41.436Z,64.90
2019-04-11T20:19:27.183Z,65.00
2019-04-11T20:22:14.674Z,65.10
2019-04-11T20:25:03.519Z,64.80
2019-04-11T20:27:52.638Z,65.10
2019-04-11T20:30:42.339Z,65.50
2019-04-11T20:33:34.696Z,65.50
2019-04-11T20:36:32.782Z,65.50
2019-04-11T20:39:15.003Z,65.40
2019-04-11T20:42:02.775Z,65.20
2019-04-11T20:44:51.846Z,65.10
2019-04-11T20:47:41.016Z,65.20
2019-04-11T20:50:30.436Z,65.80
2019-04-11T20:53:19.140Z,65.90
2019-04-11T20:56:09.937Z,65.40
2019-04-11T20:59:00.152Z,65.50
2019-04-11T21:01:48.818Z,65.70
2019-04-11T21:04:19.006Z,65.80
2019-04-11T21:07:07.885Z,65.30
2019-04-11T21:09:57.386Z,65.50
2019-04-11T21:12:46.363Z,65.70
2019-04-11T21:15:35.443Z,65.90
2019-04-11T21:18:25.847Z,65.80
2019-04-11T21:21:15.461Z,65.80
2019-04-11T21:24:04.527Z,66.10
2019-04-11T21:26:53.585Z,66.40
2019-04-11T21:29:43.027Z,66.30
2019-04-11T21:32:32.701Z,66.30
2019-04-11T21:35:21.883Z,66.40
2019-04-11T21:38:11.129Z,66.60
2019-04-11T21:41:00.522Z,66.70
2019-04-11T21:43:49.978Z,66.80
2019-04-11T21:46:41.771Z,66.80
2019-04-11T21:49:29.109Z,67.00
2019-04-11T21:52:18.370Z,67.30
2019-04-11T21:55:07.270Z,67.00
2019-04-11T21:57:56.474Z,67.40
2019-04-11T22:00:48.053Z,67.80
2019-04-11T22:03:36.538Z,68.00
2019-04-11T22:06:28.024Z,68.10
2019-04-11T22:09:17.235Z,68.30
2019-04-11T22:12:08.676Z,68.60
2019-04-11T22:14:58.235Z,69.20
2019-04-11T22:17:47.301Z,68.80
2019-04-11T22:20:36.173Z,68.90
2019-04-11T22:23:25.170Z,69.10
2019-04-11T22:26:13.886Z,69.80
2019-04-11T22:29:03.635Z,69.60
2019-04-11T22:31:55.833Z,70.20
2019-04-11T22:34:47.365Z,70.10
2019-04-11T22:37:36.372Z,70.30
2019-04-11T22:40:25.318Z,70.20
2019-04-11T22:43:24.012Z,70.40
2019-04-11T22:46:07.708Z,71.00
2019-04-11T22:48:55.480Z,70.80
2019-04-11T22:51:44.168Z,71.20
2019-04-11T22:54:33.234Z,71.30
2019-04-11T22:57:21.883Z,71.40
2019-04-11T23:00:14.687Z,71.40
2019-04-11T23:03:27.048Z,71.60
2019-04-11T23:06:17.190Z,72.00
2019-04-11T23:09:07.775Z,72.20
2019-04-11T23:11:56.732Z,72.80
2019-04-11T23:14:45.794Z,72.80
2019-04-11T23:17:37.883Z,73.20
2019-04-11T23:20:26.010Z,73.30
2019-04-11T23:23:15.695Z,73.60
2019-04-11T23:26:05.117Z,73.70
2019-04-11T23:28:53.625Z,73.90
2019-04-11T23:31:42.585Z,74.30
2019-04-11T23:34:13.011Z,74.90
2019-04-11T23:37:01.875Z,75.00
2019-04-11T23:39:51.122Z,75.00
2019-04-11T23:42:40.898Z,75.20
2019-04-11T23:45:29.892Z,75.80
2019-04-11T23:48:18.684Z,75.60
2019-04-11T23:51:07.550Z,75.80
2019-04-11T23:53:59.767Z,76.40
2019-04-11T23:56:47.695Z,76.70
2019-04-11T23:59:36.998Z,76.80
